M I D A S
Marine Information and Data Acquisition System
Tripno 2015 of the Zeeleeuw from 2010-11-17 08:29:53 to 2010-11-17 15:14:32
Back to CruiseResearch ActivitiesStationsMapUnderway DataData graphs

EquipmentUnitsComments
TimeDGPSUTC
LatitudeDGPSDM.mWGS84
LongitudeDGPSDM.mWGS84
SpeedMeteo Stationm/sRelative wind speed
DirectionMeteo StationdegRelative wind direction
TemperatureMeteo Stationdeg CelciusAir temperature
PressureMeteo StationPaAtmospheric pressure
HumidityMeteo Station%Relative humidity
Missing or incorrect values are displayed as -999
Metereological data collected by the RV Zeeleeuw from 2010-11-17 07:24:56 to 2010-11-17 15:26:02
Time Latitude Longitude Speed Direction Temperature Pressure Humidity
2010-11-17 07:26 51°13.665 2°55.957 3.9 326 3.8 101290 42
2010-11-17 07:27 51°13.664 2°55.958 4.4 325 3.7 101280 42
2010-11-17 07:28 51°13.663 2°55.958 3.1 331 3.7 101280 44
2010-11-17 07:29 51°13.663 2°55.958 1.1 14 -999 -999 -999
2010-11-17 07:30 51°13.664 2°55.958 0.3 332 3.7 101280 43
2010-11-17 07:30 51°13.664 2°55.958 2 331 3.7 101280 45
2010-11-17 07:31 51°13.665 2°55.959 1 328 3.7 101280 45
2010-11-17 07:32 51°13.664 2°55.959 2.6 337 3.7 101280 45
2010-11-17 07:33 51°13.667 2°55.96 0.1 330 3.7 101280 44
2010-11-17 07:34 51°13.662 2°55.959 -999 321 3.7 101280 43
2010-11-17 07:35 51°13.664 2°55.959 4 327 3.6 101290 44
2010-11-17 07:36 51°13.664 2°55.96 3.8 332 3.6 101290 42
2010-11-17 07:37 51°13.662 2°55.958 5.7 333 3.6 101280 43
2010-11-17 07:38 51°13.663 2°55.959 3.4 329 3.6 101290 42
2010-11-17 07:39 51°13.663 2°55.959 4 281 -999 -999 -999
2010-11-17 07:40 51°13.663 2°55.959 4.6 329 3.6 101290 43
2010-11-17 07:41 51°13.663 2°55.96 5.3 329 3.6 101280 42
2010-11-17 07:42 51°13.664 2°55.961 4.5 337 3.6 101290 44
2010-11-17 07:43 51°13.664 2°55.96 4.5 328 3.6 101290 44
2010-11-17 07:44 51°13.666 2°55.963 3.7 324 3.6 101290 42
2010-11-17 07:45 51°13.662 2°55.959 4.3 336 3.6 101290 44
2010-11-17 07:46 51°13.661 2°55.959 2.7 332 3.7 101280 41
2010-11-17 07:47 51°13.665 2°55.961 3.4 332 3.7 101290 44
2010-11-17 07:48 51°13.664 2°55.961 2.4 328 3.6 101290 44
2010-11-17 07:49 51°13.665 2°55.962 4.2 331 3.6 101290 45
2010-11-17 07:50 51°13.664 2°55.96 5.8 327 3.7 101290 41
2010-11-17 07:51 51°13.662 2°55.959 4.6 320 3.6 101290 44
2010-11-17 07:52 51°13.663 2°55.96 3.7 333 3.6 101280 41
2010-11-17 07:53 51°13.665 2°55.961 4.4 322 3.6 101280 42
2010-11-17 07:54 51°13.663 2°55.959 5 333 3.5 101280 43
2010-11-17 07:55 51°13.663 2°55.96 1.6 336 3.5 101270 42
2010-11-17 07:56 51°13.663 2°55.961 5.1 331 3.4 101280 44
2010-11-17 07:57 51°13.663 2°55.961 6.7 327 3.5 101270 42
2010-11-17 07:58 51°13.673 2°55.968 4.1 317 3.4 101270 40
2010-11-17 07:59 51°13.665 2°55.961 3.6 335 3.4 101270 44
2010-11-17 08:00 51°13.664 2°55.96 0.9 320 3.4 101260 42
2010-11-17 08:01 51°13.662 2°55.959 4.5 329 3.5 101260 43
2010-11-17 08:02 51°13.662 2°55.96 3.6 324 3.4 101260 41
2010-11-17 08:03 51°13.661 2°55.96 1.4 330 3.5 101260 43
2010-11-17 08:04 51°13.661 2°55.959 -999 330 3.5 101260 43
2010-11-17 08:05 51°13.662 2°55.959 -999 322 3.5 101260 43
2010-11-17 08:06 51°13.661 2°55.959 -999 329 3.6 101260 42
2010-11-17 08:07 51°13.66 2°55.959 -999 317 3.6 101270 43
2010-11-17 08:08 51°13.66 2°55.959 -999 327 3.6 101260 43
2010-11-17 08:09 51°13.66 2°55.958 -999 323 3.6 101270 43
2010-11-17 08:10 51°13.66 2°55.958 -999 329 3.5 101260 43
2010-11-17 08:11 51°13.66 2°55.958 -999 337 3.5 101260 43
2010-11-17 08:12 51°13.66 2°55.958 -999 325 3.6 101260 43
2010-11-17 08:13 51°13.662 2°55.958 -999 337 3.5 101260 43
2010-11-17 08:14 51°13.663 2°55.959 -999 338 3.6 101250 42
2010-11-17 08:15 51°13.664 2°55.96 -999 324 3.6 101260 43
2010-11-17 08:16 51°13.664 2°55.961 -999 324 3.7 101260 43
2010-11-17 08:17 51°13.664 2°55.961 -999 326 3.6 101260 43
2010-11-17 08:18 51°13.665 2°55.961 -999 319 3.6 101260 43
2010-11-17 08:19 51°13.664 2°55.961 -999 22 3.6 101260 43
2010-11-17 08:20 51°13.664 2°55.962 -999 321 3.5 101260 43
2010-11-17 08:21 51°13.664 2°55.961 -999 320 3.5 101250 43
2010-11-17 08:22 51°13.664 2°55.962 -999 22 3.5 101250 42
2010-11-17 08:23 51°13.663 2°55.954 -999 326 3.4 101260 43
2010-11-17 08:25 51°13.685 2°55.864 -999 343 3.4 101250 43
2010-11-17 08:26 51°13.698 2°55.763 -999 359 3.4 101250 43
2010-11-17 08:26 51°13.707 2°55.727 -999 12 3.5 101250 43
2010-11-17 08:27 51°13.7 2°55.709 -999 28 3.5 101250 43
2010-11-17 08:28 51°13.761 2°55.675 -999 23 3.5 101250 43
2010-11-17 08:29 51°13.879 2°55.588 -999 5 3.5 101240 43
2010-11-17 08:30 51°14.026 2°55.486 -999 13 3.4 101240 42
2010-11-17 08:31 51°14.181 2°55.379 -999 9 3.4 101240 43
2010-11-17 08:32 51°14.337 2°55.234 -999 12 3.4 101230 43
2010-11-17 08:33 51°14.503 2°55.062 -999 23 3.3 101230 43
2010-11-17 08:34 51°14.689 2°54.889 -999 20 3.5 101230 43
2010-11-17 08:35 51°14.865 2°54.692 -999 15 3.4 101230 43
2010-11-17 08:36 51°15.042 2°54.495 -999 7 3.5 101230 43
2010-11-17 08:37 51°15.219 2°54.299 -999 17 3.7 101230 43
2010-11-17 08:38 51°15.398 2°54.106 -999 10 3.6 101230 42
2010-11-17 08:39 51°15.576 2°53.91 -999 9 3.6 101230 43
2010-11-17 08:40 51°15.744 2°53.698 -999 31 3.7 101230 43
2010-11-17 08:41 51°15.915 2°53.495 -999 17 3.5 101230 43
2010-11-17 08:42 51°16.119 2°53.366 -999 12 3.6 101220 43
2010-11-17 08:43 51°16.318 2°53.225 -999 13 3.7 101210 43
2010-11-17 08:44 51°16.516 2°53.081 -999 12 3.6 101220 43
2010-11-17 08:45 51°16.712 2°52.932 -999 18 3.7 101210 43
2010-11-17 08:46 51°16.907 2°52.78 -999 17 3.8 101220 42
2010-11-17 08:47 51°17.11 2°52.644 -999 6 3.8 101210 43
2010-11-17 08:48 51°17.334 2°52.625 -999 4 3.9 101200 43
2010-11-17 08:49 51°17.561 2°52.638 -999 5 4 101200 44
2010-11-17 08:50 51°17.789 2°52.655 -999 -999 4 101190 44
2010-11-17 08:51 51°18.018 2°52.674 10.5 2 4.1 101200 44
2010-11-17 08:52 51°18.244 2°52.689 5 7 4.1 101190 45
2010-11-17 08:53 51°18.471 2°52.71 6.9 4 4.1 101190 42
2010-11-17 08:54 51°18.696 2°52.785 7.7 2 4.1 101190 43
2010-11-17 08:55 51°18.919 2°52.867 10.4 359 4.2 101190 43
2010-11-17 08:56 51°19.142 2°52.945 6.5 5 4.2 101180 44
2010-11-17 08:57 51°19.367 2°53.024 7 1 4.3 101190 43
2010-11-17 08:58 51°19.592 2°53.102 10.2 -999 4.3 101190 43
2010-11-17 08:59 51°19.816 2°53.182 8.3 5 4.2 101180 44
2010-11-17 09:00 51°20.042 2°53.259 6.9 1 4.3 101180 43
2010-11-17 09:01 51°20.268 2°53.338 11.3 3 4.2 101180 44
2010-11-17 09:02 51°20.495 2°53.415 6.4 3 4.2 101180 41
2010-11-17 09:03 51°20.72 2°53.491 8.6 5 4.3 101180 44
2010-11-17 09:04 51°20.945 2°53.567 7.6 358 4.3 101180 45
2010-11-17 09:05 51°21.169 2°53.64 4.1 4 4.3 101180 45
2010-11-17 09:06 51°21.394 2°53.709 9.6 4 4.4 101190 43
2010-11-17 09:07 51°21.618 2°53.77 9 -999 4.4 101200 45
2010-11-17 09:08 51°21.842 2°53.835 8.3 7 4.4 101190 45
2010-11-17 09:09 51°22.067 2°53.901 9.4 6 4.5 101190 44
2010-11-17 09:10 51°22.292 2°53.97 9.9 6 4.5 101190 44
2010-11-17 09:11 51°22.519 2°54.026 3.9 8 4.6 101190 43
2010-11-17 09:12 51°22.746 2°54.079 11.5 8 4.5 101190 44
2010-11-17 09:13 51°22.974 2°54.134 8.6 10 4.5 101200 43
2010-11-17 09:14 51°23.203 2°54.185 10.2 8 4.4 101200 44
2010-11-17 09:15 51°23.432 2°54.236 6.1 3 4.4 101200 43
2010-11-17 09:16 51°23.663 2°54.289 7.9 6 4.5 101200 45
2010-11-17 09:17 51°23.893 2°54.341 3.7 6 4.6 101200 45
2010-11-17 09:18 51°24.124 2°54.394 8.2 2 4.6 101190 44
2010-11-17 09:19 51°24.354 2°54.444 8.1 4 4.7 101200 42
2010-11-17 09:20 51°24.584 2°54.494 10 6 4.7 101200 43
2010-11-17 09:21 51°24.812 2°54.543 9.3 2 4.6 101190 44
2010-11-17 09:22 51°25.039 2°54.589 3.8 7 4.7 101180 45
2010-11-17 09:23 51°25.267 2°54.636 7.7 7 4.6 101190 43
2010-11-17 09:24 51°25.495 2°54.682 5.4 9 4.6 101180 43
2010-11-17 09:25 51°25.724 2°54.729 9.7 15 4.6 101180 43
2010-11-17 09:26 51°25.953 2°54.776 10 8 4.8 101180 44
2010-11-17 09:27 51°26.182 2°54.825 9.1 3 4.7 101180 45
2010-11-17 09:28 51°26.411 2°54.875 6.8 4 4.8 101180 44
2010-11-17 09:29 51°26.641 2°54.925 9.1 8 4.8 101190 42
2010-11-17 09:30 51°26.87 2°54.977 9.9 10 4.9 101170 43
2010-11-17 09:31 51°27.1 2°55.03 4.1 8 5 101170 43
2010-11-17 09:32 51°27.33 2°55.081 4.3 6 5 101170 43
2010-11-17 09:33 51°27.56 2°55.134 11.7 10 4.9 101180 45
2010-11-17 09:34 51°27.791 2°55.184 11.1 9 4.9 101180 42
2010-11-17 09:35 51°28.021 2°55.233 6.7 7 4.9 101170 44
2010-11-17 09:36 51°28.251 2°55.279 11.8 9 4.9 101180 44
2010-11-17 09:37 51°28.48 2°55.326 6.5 7 4.9 101170 44
2010-11-17 09:38 51°28.709 2°55.371 5.2 9 4.8 101170 43
2010-11-17 09:39 51°28.938 2°55.413 8.1 4 4.8 101170 43
2010-11-17 09:40 51°29.166 2°55.459 7.9 7 4.8 101170 42
2010-11-17 09:41 51°29.394 2°55.505 9.8 9 4.9 101180 45
2010-11-17 09:42 51°29.622 2°55.552 10.6 8 4.9 101170 41
2010-11-17 09:43 51°29.851 2°55.601 11.3 9 5.1 101180 43
2010-11-17 09:44 51°30.08 2°55.653 8.5 7 5.2 101170 43
2010-11-17 09:45 51°30.309 2°55.703 5.7 9 5.2 101170 44
2010-11-17 09:46 51°30.535 2°55.776 12.5 9 5.1 101160 43
2010-11-17 09:47 51°30.762 2°55.862 4.6 9 5.1 101160 45
2010-11-17 09:48 51°30.982 2°55.983 11.2 4 5.1 101170 44
2010-11-17 09:49 51°31.192 2°56.151 10.3 3 5.2 101140 43
2010-11-17 09:50 51°31.403 2°56.317 4.3 5 5.3 101140 42
2010-11-17 09:51 51°31.614 2°56.481 13.2 357 5.3 101150 43
2010-11-17 09:52 51°31.782 2°56.709 11.4 353 5.3 101120 45
2010-11-17 09:53 51°31.884 2°56.863 3.4 4 5.4 101140 43
2010-11-17 09:54 51°31.98 2°56.994 11.2 -999 5.4 101140 45
2010-11-17 09:55 51°32.085 2°57.135 4.8 1 5.5 101150 45
2010-11-17 09:56 51°32.193 2°57.288 12.1 351 5.4 101150 45
2010-11-17 09:57 51°32.294 2°57.475 3.9 360 5.4 101150 44
2010-11-17 09:58 51°32.369 2°57.524 7.8 27 5.5 101170 44
2010-11-17 09:59 51°32.422 2°57.532 8 31 5.7 101180 43
2010-11-17 10:00 51°32.464 2°57.546 11.1 17 5.6 101170 44
2010-11-17 10:01 51°32.497 2°57.557 8.1 15 5.6 101160 45
2010-11-17 10:02 51°32.524 2°57.565 3.7 7 5.9 101160 46
2010-11-17 10:03 51°32.549 2°57.566 7.8 23 5.8 101170 45
2010-11-17 10:04 51°32.592 2°57.568 11.6 39 6.1 101160 43
2010-11-17 10:05 51°32.644 2°57.532 4.8 25 5.9 101180 45
2010-11-17 10:06 51°32.656 2°57.468 5.2 267 6 101200 43
2010-11-17 10:07 51°32.62 2°57.434 9.9 23 6.1 101160 45
2010-11-17 10:08 51°32.554 2°57.421 10.1 25 5.9 101150 45
2010-11-17 10:09 51°32.517 2°57.427 12.5 23 6 101150 43
2010-11-17 10:10 51°32.505 2°57.424 10.5 20 5.9 101160 45
2010-11-17 10:11 51°32.505 2°57.422 8.4 24 5.9 101160 44
2010-11-17 10:12 51°32.511 2°57.419 9.8 249 5.9 101150 45
2010-11-17 10:13 51°32.523 2°57.413 9.1 248 5.9 101170 44
2010-11-17 10:14 51°32.539 2°57.408 10.7 253 5.9 101160 44
2010-11-17 10:15 51°32.559 2°57.404 10.9 256 6 101160 43
2010-11-17 10:16 51°32.576 2°57.4 10.5 254 6 101180 46
2010-11-17 10:17 51°32.593 2°57.394 10.3 255 6 101150 44
2010-11-17 10:18 51°32.609 2°57.387 10.3 252 6 101150 43
2010-11-17 10:19 51°32.626 2°57.377 11.5 252 5.9 101160 44
2010-11-17 10:20 51°32.642 2°57.37 10.4 260 5.9 101160 44
2010-11-17 10:21 51°32.661 2°57.364 9.7 254 5.9 101150 45
2010-11-17 10:22 51°32.679 2°57.356 13.1 259 6 101170 44
2010-11-17 10:23 51°32.698 2°57.348 10.4 260 5.9 101160 45
2010-11-17 10:24 51°32.716 2°57.34 9.8 252 5.9 101160 43
2010-11-17 10:25 51°32.73 2°57.332 11.1 249 5.9 101150 45
2010-11-17 10:26 51°32.715 2°57.334 5.6 24 5.9 101130 45
2010-11-17 10:27 51°32.676 2°57.363 13.3 18 5.9 101130 44
2010-11-17 10:28 51°32.625 2°57.404 12.3 20 5.9 101120 44
2010-11-17 10:29 51°32.564 2°57.407 12 26 5.9 101130 44
2010-11-17 10:30 51°32.503 2°57.408 10.6 248 6 101140 44
2010-11-17 10:31 51°32.471 2°57.397 10.7 257 5.9 101130 43
2010-11-17 10:32 51°32.468 2°57.387 10.2 252 6 101150 45
2010-11-17 10:33 51°32.471 2°57.379 9.2 21 6.1 101150 45
2010-11-17 10:34 51°32.478 2°57.37 11.1 251 6 101140 43
2010-11-17 10:35 51°32.49 2°57.363 10.9 252 6.1 101140 45
2010-11-17 10:36 51°32.504 2°57.356 8.5 253 6 101140 44
2010-11-17 10:37 51°32.522 2°57.351 10.1 251 6.1 101160 44
2010-11-17 10:38 51°32.538 2°57.345 8.2 248 6.1 101150 43
2010-11-17 10:39 51°32.555 2°57.34 11.7 251 6.2 101130 44
2010-11-17 10:40 51°32.573 2°57.333 9.1 255 6.2 101140 45
2010-11-17 10:41 51°32.59 2°57.324 9.3 254 6.2 101150 45
2010-11-17 10:42 51°32.579 2°57.325 8.2 18 6.2 101140 44
2010-11-17 10:43 51°32.564 2°57.379 8.9 337 6.1 101120 44
2010-11-17 10:44 51°32.607 2°57.458 8.6 16 5.9 101130 44
2010-11-17 10:45 51°32.687 2°57.468 7.8 18 5.8 101150 43
2010-11-17 10:46 51°32.756 2°57.483 10.6 21 5.8 101130 41
2010-11-17 10:47 51°32.802 2°57.5 8.6 13 5.7 101140 44
2010-11-17 10:48 51°32.837 2°57.514 9.2 15 5.7 101140 42
2010-11-17 10:49 51°32.868 2°57.519 10.7 19 5.9 101130 43
2010-11-17 10:50 51°32.894 2°57.516 7.6 20 5.9 101130 44
2010-11-17 10:51 51°32.916 2°57.513 7.8 21 5.9 101140 43
2010-11-17 10:52 51°32.939 2°57.507 7.6 26 5.9 101140 44
2010-11-17 10:53 51°32.973 2°57.502 9.3 34 6 101130 44
2010-11-17 10:54 51°33.021 2°57.482 9.4 20 6 101140 44
2010-11-17 10:55 51°33.057 2°57.434 6.4 21 5.7 101150 45
2010-11-17 10:56 51°33.068 2°57.374 8.9 28 5.7 101150 43
2010-11-17 10:57 51°33.066 2°57.314 8 20 5.6 101150 41
2010-11-17 10:58 51°33.062 2°57.248 9.2 270 5.7 101140 43
2010-11-17 10:59 51°33.056 2°57.186 8.2 270 5.7 101140 42
2010-11-17 11:00 51°33.047 2°57.124 7.5 270 5.8 101140 45
2010-11-17 11:01 51°33.04 2°57.059 7.8 270 5.8 101150 45
2010-11-17 11:02 51°33.034 2°56.994 6.7 269 5.9 101170 42
2010-11-17 11:03 51°33.023 2°56.932 6.9 270 5.8 101150 43
2010-11-17 11:04 51°33.012 2°56.868 6.7 262 5.9 101140 44
2010-11-17 11:05 51°33.002 2°56.803 5.3 264 5.9 101140 43
2010-11-17 11:06 51°32.992 2°56.737 7.4 267 6.2 101140 45
2010-11-17 11:07 51°32.983 2°56.67 8.8 28 6.2 101140 42
2010-11-17 11:08 51°32.973 2°56.603 5.4 264 6.1 101140 45
2010-11-17 11:09 51°32.967 2°56.556 6.8 262 6 101130 45
2010-11-17 11:10 51°32.966 2°56.529 7.3 268 6.1 101120 43
2010-11-17 11:11 51°32.97 2°56.515 9.7 257 6 101120 44
2010-11-17 11:12 51°32.98 2°56.508 10.5 251 6.1 101120 43
2010-11-17 11:13 51°32.996 2°56.502 7 252 6.2 101130 43
2010-11-17 11:14 51°33.016 2°56.496 10.3 259 6.2 101120 45
2010-11-17 11:15 51°33.039 2°56.488 9.8 260 6.1 101120 44
2010-11-17 11:16 51°33.063 2°56.483 7 263 6.1 101110 42
2010-11-17 11:17 51°33.088 2°56.479 6.3 263 6.1 101110 45
2010-11-17 11:18 51°33.114 2°56.477 6.3 268 6.1 101120 44
2010-11-17 11:19 51°33.139 2°56.475 7.9 269 6.2 101120 45
2010-11-17 11:20 51°33.164 2°56.472 6.4 266 6.1 101110 43
2010-11-17 11:21 51°33.189 2°56.47 7.6 267 6 101120 42
2010-11-17 11:22 51°33.214 2°56.467 5.1 263 6 101100 45
2010-11-17 11:23 51°33.224 2°56.449 7.1 270 6 101110 44
2010-11-17 11:24 51°33.205 2°56.407 8.3 263 6 101100 42
2010-11-17 11:25 51°33.174 2°56.348 5.7 265 6.1 101100 46
2010-11-17 11:26 51°33.145 2°56.268 7.2 266 6.1 101110 44
2010-11-17 11:27 51°33.127 2°56.171 6 26 6 101110 44
2010-11-17 11:28 51°33.108 2°56.083 6 263 6 101100 45
2010-11-17 11:29 51°33.095 2°56.045 7.8 266 6.1 101100 43
2010-11-17 11:30 51°33.09 2°56.027 9.4 255 6.2 101090 43
2010-11-17 11:31 51°33.093 2°56.016 7.3 253 6.2 101080 43
2010-11-17 11:32 51°33.101 2°56.011 8.7 19 6.2 101070 44
2010-11-17 11:33 51°33.114 2°56.003 10.3 252 6.4 101060 43
2010-11-17 11:34 51°33.13 2°55.992 10.4 253 6.4 101070 44
2010-11-17 11:35 51°33.149 2°55.983 12.5 255 6.3 101080 45
2010-11-17 11:36 51°33.169 2°55.974 9 259 6.2 101070 44
2010-11-17 11:37 51°33.19 2°55.966 7.7 262 6.1 101100 45
2010-11-17 11:38 51°33.21 2°55.957 6.2 266 6.2 101080 45
2010-11-17 11:39 51°33.229 2°55.948 6.5 261 6.3 101080 44
2010-11-17 11:40 51°33.248 2°55.94 8.3 258 6.1 101090 43
2010-11-17 11:41 51°33.267 2°55.932 8.3 254 6.2 101070 43
2010-11-17 11:42 51°33.285 2°55.921 9.5 259 6.2 101080 43
2010-11-17 11:43 51°33.303 2°55.911 9.1 257 6.2 101060 45
2010-11-17 11:44 51°33.322 2°55.9 8.1 263 6.2 101090 44
2010-11-17 11:45 51°33.34 2°55.89 7.2 262 6.3 101060 45
2010-11-17 11:46 51°33.36 2°55.881 8.6 262 6.2 101070 44
2010-11-17 11:47 51°33.38 2°55.872 5.5 264 6.3 101060 42
2010-11-17 11:48 51°33.4 2°55.863 8.1 261 6.2 101060 42
2010-11-17 11:49 51°33.421 2°55.851 9.9 262 6.1 101060 44
2010-11-17 11:50 51°33.423 2°55.837 9.9 248 6.2 101040 42
2010-11-17 11:51 51°33.413 2°55.835 4.9 23 6.2 101030 44
2010-11-17 11:52 51°33.404 2°55.846 7.1 18 6.2 101040 42
2010-11-17 11:53 51°33.397 2°55.866 2.5 318 6.3 101030 42
2010-11-17 11:54 51°33.388 2°55.895 9 315 6.2 101030 42
2010-11-17 11:55 51°33.378 2°55.924 10.4 24 6.1 101020 43
2010-11-17 11:56 51°33.367 2°55.953 5.4 316 6.1 101020 44
2010-11-17 11:57 51°33.356 2°55.988 10.5 319 6.1 101020 44
2010-11-17 11:58 51°33.347 2°56.025 4.8 322 6.1 101030 42
2010-11-17 11:59 51°33.34 2°56.066 4.8 327 6.2 101020 42
2010-11-17 12:00 51°33.335 2°56.111 9.1 324 6.2 101030 44
2010-11-17 12:01 51°33.327 2°56.159 10.1 327 6.2 101030 44
2010-11-17 12:02 51°33.325 2°56.212 8.9 330 6.2 101030 44
2010-11-17 12:03 51°33.328 2°56.269 8.7 334 6.1 101030 44
2010-11-17 12:04 51°33.34 2°56.33 8.7 338 6.2 101020 43
2010-11-17 12:05 51°33.363 2°56.391 10.5 348 6.2 101010 44
2010-11-17 12:06 51°33.389 2°56.456 8.6 340 6.2 101010 41
2010-11-17 12:07 51°33.401 2°56.513 9.6 324 6.3 101000 45
2010-11-17 12:08 51°33.396 2°56.537 10.5 24 6.2 101000 43
2010-11-17 12:09 51°33.398 2°56.533 9 20 6.3 101010 44
2010-11-17 12:10 51°33.41 2°56.519 7.1 249 6.3 101000 42
2010-11-17 12:11 51°33.428 2°56.504 11.6 258 6.4 101000 42
2010-11-17 12:12 51°33.449 2°56.491 5.6 266 6.4 101030 43
2010-11-17 12:13 51°33.47 2°56.482 8.4 269 6.5 101010 42
2010-11-17 12:14 51°33.493 2°56.473 8.2 270 6.4 101020 43
2010-11-17 12:15 51°33.514 2°56.462 5.8 263 6.4 101020 43
2010-11-17 12:16 51°33.511 2°56.434 10.2 250 6.6 101010 44
2010-11-17 12:17 51°33.48 2°56.411 11.7 245 6.6 101000 43
2010-11-17 12:18 51°33.416 2°56.389 10.7 248 6.6 101000 43
2010-11-17 12:19 51°33.336 2°56.341 10.7 251 6.6 100970 42
2010-11-17 12:20 51°33.256 2°56.271 9.9 253 6.6 100990 44
2010-11-17 12:21 51°33.177 2°56.194 9.2 19 6.6 100980 42
2010-11-17 12:22 51°33.101 2°56.103 7.5 251 6.5 100990 43
2010-11-17 12:23 51°33.094 2°55.986 5.7 24 6.5 101010 44
2010-11-17 12:24 51°33.149 2°55.929 8.4 28 6.5 100990 42
2010-11-17 12:25 51°33.196 2°55.915 8.9 32 6.6 100990 43
2010-11-17 12:26 51°33.233 2°55.908 9.1 26 6.5 100990 42
2010-11-17 12:27 51°33.263 2°55.902 9.7 25 6.4 100990 44
2010-11-17 12:28 51°33.306 2°55.908 8.6 21 6.4 100990 44
2010-11-17 12:29 51°33.365 2°55.906 8.4 38 6.3 100990 42
2010-11-17 12:30 51°33.408 2°55.848 8.1 25 6.4 101010 43
2010-11-17 12:31 51°33.404 2°55.782 8.4 253 6.6 101000 45
2010-11-17 12:32 51°33.376 2°55.765 9.4 23 6.6 100980 44
2010-11-17 12:33 51°33.356 2°55.772 9.3 25 6.6 100960 43
2010-11-17 12:34 51°33.35 2°55.771 8.8 21 6.6 100980 43
2010-11-17 12:35 51°33.352 2°55.763 10 27 6.6 100970 43
2010-11-17 12:36 51°33.36 2°55.749 10.2 26 6.5 100980 42
2010-11-17 12:37 51°33.37 2°55.732 10.2 254 6.6 100970 44
2010-11-17 12:38 51°33.381 2°55.712 9 258 6.6 100990 43
2010-11-17 12:39 51°33.391 2°55.692 10.7 254 6.6 101000 44
2010-11-17 12:40 51°33.393 2°55.676 9.2 26 6.7 100980 43
2010-11-17 12:41 51°33.369 2°55.706 9.4 330 6.6 100970 43
2010-11-17 12:42 51°33.384 2°55.777 8.7 360 6.5 100970 42
2010-11-17 12:43 51°33.417 2°55.792 9.9 12 6.4 100970 42
2010-11-17 12:44 51°33.43 2°55.776 7.2 22 6.4 100990 44
2010-11-17 12:45 51°33.441 2°55.759 7.8 27 6.5 100990 42
2010-11-17 12:46 51°33.454 2°55.744 8.4 37 6.5 100980 43
2010-11-17 12:47 51°33.469 2°55.728 9.3 34 6.4 100990 44
2010-11-17 12:48 51°33.486 2°55.713 9.3 29 6.4 100980 43
2010-11-17 12:49 51°33.501 2°55.698 7.8 26 6.4 100980 42
2010-11-17 12:50 51°33.515 2°55.679 7.5 26 6.4 100980 43
2010-11-17 12:51 51°33.544 2°55.671 8.7 12 6.4 100980 43
2010-11-17 12:52 51°33.588 2°55.697 7.6 359 6.4 100960 44
2010-11-17 12:53 51°33.617 2°55.763 9 336 6.5 100970 43
2010-11-17 12:54 51°33.594 2°55.813 10.4 25 6.5 100950 42
2010-11-17 12:55 51°33.551 2°55.835 10.2 18 6.5 100960 42
2010-11-17 12:56 51°33.471 2°55.905 11.2 18 6.4 100930 43
2010-11-17 12:57 51°33.357 2°55.972 13.6 21 6.5 100940 44
2010-11-17 12:58 51°33.239 2°56.033 12.3 24 6.4 100940 43
2010-11-17 12:59 51°33.151 2°56.082 7.8 22 6.4 100940 41
2010-11-17 13:00 51°33.122 2°55.998 5.9 25 6.4 100990 42
2010-11-17 13:01 51°33.162 2°55.918 6.4 32 6.6 100970 42
2010-11-17 13:02 51°33.208 2°55.892 8 26 6.6 100960 44
2010-11-17 13:03 51°33.241 2°55.878 6.7 22 6.5 100960 44
2010-11-17 13:04 51°33.267 2°55.865 8.2 26 6.5 100960 44
2010-11-17 13:05 51°33.288 2°55.853 7.4 19 6.4 100950 41
2010-11-17 13:06 51°33.306 2°55.838 8.3 20 6.4 100950 44
2010-11-17 13:07 51°33.32 2°55.821 8 14 6.4 100940 42
2010-11-17 13:08 51°33.333 2°55.801 7.6 24 6.4 100940 44
2010-11-17 13:09 51°33.345 2°55.782 8.8 21 6.5 100960 43
2010-11-17 13:10 51°33.356 2°55.761 7.5 30 6.5 100950 41
2010-11-17 13:11 51°33.366 2°55.741 7.6 29 6.4 100950 42
2010-11-17 13:12 51°33.378 2°55.721 9.2 31 6.4 100950 42
2010-11-17 13:13 51°33.391 2°55.703 7.3 31 6.4 100940 43
2010-11-17 13:14 51°33.404 2°55.684 9 28 6.5 100950 43
2010-11-17 13:15 51°33.417 2°55.667 7.8 22 6.5 100950 42
2010-11-17 13:16 51°33.429 2°55.647 7.7 21 6.5 100940 42
2010-11-17 13:17 51°33.44 2°55.629 8.9 28 6.6 100950 42
2010-11-17 13:18 51°33.452 2°55.61 8 31 6.5 100940 41
2010-11-17 13:19 51°33.464 2°55.591 8.5 26 6.5 100940 44
2010-11-17 13:20 51°33.477 2°55.571 7.3 27 6.5 100950 42
2010-11-17 13:21 51°33.5 2°55.556 9.3 21 6.5 100950 42
2010-11-17 13:22 51°33.519 2°55.542 9 18 6.6 100950 45
2010-11-17 13:23 51°33.534 2°55.527 8.1 21 6.7 100930 45
2010-11-17 13:24 51°33.547 2°55.51 8.5 21 6.7 100930 44
2010-11-17 13:25 51°33.558 2°55.488 8.2 26 6.6 100940 43
2010-11-17 13:26 51°33.594 2°55.464 6.2 38 6.6 100950 41
2010-11-17 13:27 51°33.623 2°55.382 7.8 20 6.7 100950 42
2010-11-17 13:28 51°33.612 2°55.319 6.1 263 6.6 100940 41
2010-11-17 13:29 51°33.606 2°55.29 8.2 258 6.7 100940 44
2010-11-17 13:30 51°33.606 2°55.269 8 259 6.8 100930 42
2010-11-17 13:31 51°33.608 2°55.249 8.5 254 6.8 100930 44
2010-11-17 13:32 51°33.611 2°55.229 8.9 263 6.9 100930 43
2010-11-17 13:33 51°33.616 2°55.208 9 247 6.8 100920 42
2010-11-17 13:34 51°33.609 2°55.183 9.5 260 6.8 100920 41
2010-11-17 13:35 51°33.566 2°55.147 10.7 28 6.8 100920 42
2010-11-17 13:36 51°33.461 2°55.117 10.2 26 6.7 100900 42
2010-11-17 13:37 51°33.315 2°55.075 11.2 26 6.7 100910 42
2010-11-17 13:38 51°33.134 2°55.026 10.1 24 6.7 100890 43
2010-11-17 13:39 51°32.94 2°54.976 10 23 6.7 100890 43
2010-11-17 13:40 51°32.745 2°54.925 11.1 23 6.7 100880 44
2010-11-17 13:41 51°32.551 2°54.876 12.3 26 6.6 100890 43
2010-11-17 13:42 51°32.357 2°54.825 10.6 24 6.6 100890 42
2010-11-17 13:43 51°32.161 2°54.773 9.4 25 6.6 100890 43
2010-11-17 13:44 51°31.966 2°54.722 5.8 25 6.6 100890 41
2010-11-17 13:45 51°31.773 2°54.669 10.7 26 6.6 100890 41
2010-11-17 13:46 51°31.579 2°54.615 12.7 23 6.7 100900 43
2010-11-17 13:47 51°31.385 2°54.561 10.2 23 6.6 100880 42
2010-11-17 13:48 51°31.191 2°54.51 13.9 20 6.6 100890 43
2010-11-17 13:49 51°30.996 2°54.459 5.7 25 6.6 100890 42
2010-11-17 13:50 51°30.803 2°54.406 11.4 18 6.5 100890 42
2010-11-17 13:51 51°30.606 2°54.352 9.8 23 6.5 100890 42
2010-11-17 13:52 51°30.408 2°54.302 11 25 6.5 100890 42
2010-11-17 13:53 51°30.21 2°54.25 9.3 20 6.6 100880 42
2010-11-17 13:54 51°30.012 2°54.195 11.6 25 6.6 100880 43
2010-11-17 13:55 51°29.812 2°54.139 5.9 25 6.5 100880 41
2010-11-17 13:56 51°29.615 2°54.084 12.4 21 6.5 100880 41
2010-11-17 13:57 51°29.417 2°54.027 5.8 23 6.5 100880 42
2010-11-17 13:58 51°29.218 2°53.974 11.2 19 6.5 100880 41
2010-11-17 13:59 51°29.02 2°53.933 12.6 23 6.5 100880 42
2010-11-17 14:00 51°28.821 2°53.909 5.7 23 6.5 100880 42
2010-11-17 14:01 51°28.62 2°53.883 11.5 25 6.4 100870 42
2010-11-17 14:02 51°28.42 2°53.854 11.4 26 6.3 100880 42
2010-11-17 14:03 51°28.219 2°53.831 12.3 22 6.3 100870 42
2010-11-17 14:04 51°28.019 2°53.821 13.7 24 6.3 100870 42
2010-11-17 14:05 51°27.819 2°53.807 12.3 20 6.3 100870 42
2010-11-17 14:06 51°27.62 2°53.801 10.3 21 6.4 100870 42
2010-11-17 14:07 51°27.419 2°53.787 12.7 19 6.4 100860 41
2010-11-17 14:08 51°27.218 2°53.773 12 26 6.3 100870 42
2010-11-17 14:09 51°27.018 2°53.758 10.9 24 6.3 100860 41
2010-11-17 14:10 51°26.815 2°53.743 10.8 25 6.3 100880 42
2010-11-17 14:11 51°26.613 2°53.732 10 21 6.3 100860 41
2010-11-17 14:12 51°26.408 2°53.715 11.7 21 6.2 100870 42
2010-11-17 14:13 51°26.205 2°53.699 11.5 23 6.2 100870 42
2010-11-17 14:14 51°26.001 2°53.683 11.6 20 6.2 100860 41
2010-11-17 14:15 51°25.798 2°53.666 13.1 24 6.2 100860 41
2010-11-17 14:16 51°25.595 2°53.65 5.2 24 6.2 100860 43
2010-11-17 14:17 51°25.392 2°53.635 9.7 21 6.2 100860 43
2010-11-17 14:18 51°25.189 2°53.618 12 23 6.2 100860 41
2010-11-17 14:19 51°24.986 2°53.6 11.9 24 6.3 100860 41
2010-11-17 14:20 51°24.783 2°53.581 5.7 24 6.3 100850 40
2010-11-17 14:21 51°24.579 2°53.562 6.3 24 6.3 100850 41
2010-11-17 14:22 51°24.375 2°53.543 11.8 21 6.3 100850 40
2010-11-17 14:23 51°24.174 2°53.525 5.2 24 6.3 100860 42
2010-11-17 14:24 51°23.969 2°53.502 9.4 24 6.3 100860 43
2010-11-17 14:25 51°23.765 2°53.453 11.9 24 6.3 100860 43
2010-11-17 14:26 51°23.561 2°53.397 11.1 23 6.3 100860 41
2010-11-17 14:27 51°23.359 2°53.343 12.8 21 6.3 100860 43
2010-11-17 14:28 51°23.153 2°53.289 12 23 6.2 100860 40
2010-11-17 14:29 51°22.949 2°53.236 11.3 24 6.3 100850 41
2010-11-17 14:30 51°22.745 2°53.181 9.7 20 6.3 100850 41
2010-11-17 14:31 51°22.54 2°53.122 10.8 24 6.2 100860 42
2010-11-17 14:32 51°22.333 2°53.061 11.1 24 6.3 100850 43
2010-11-17 14:33 51°22.127 2°53.002 8.2 22 6.3 100850 41
2010-11-17 14:34 51°21.921 2°52.942 13 25 6.3 100850 42
2010-11-17 14:35 51°21.718 2°52.881 11.4 20 6.3 100850 42
2010-11-17 14:36 51°21.513 2°52.826 10.7 25 6.3 100850 40
2010-11-17 14:37 51°21.311 2°52.765 10.5 24 6.3 100850 41
2010-11-17 14:38 51°21.107 2°52.707 10.1 24 6.3 100840 38
2010-11-17 14:39 51°20.902 2°52.67 10.2 20 6.3 100840 41
2010-11-17 14:40 51°20.697 2°52.626 12 19 6.4 100840 41
2010-11-17 14:41 51°20.491 2°52.583 6.4 21 6.3 100840 41
2010-11-17 14:42 51°20.285 2°52.536 10.9 23 6.3 100840 42
2010-11-17 14:43 51°20.08 2°52.49 9.4 20 6.4 100840 40
2010-11-17 14:44 51°19.872 2°52.447 5.9 22 6.4 100840 41
2010-11-17 14:45 51°19.663 2°52.404 4.9 23 6.3 100840 40
2010-11-17 14:46 51°19.454 2°52.358 11 19 6.2 100840 41
2010-11-17 14:47 51°19.246 2°52.313 5.6 25 6.2 100850 43
2010-11-17 14:48 51°19.038 2°52.269 9.5 24 6.2 100850 41
2010-11-17 14:49 51°18.829 2°52.227 10.4 21 6.2 100840 43
2010-11-17 14:50 51°18.621 2°52.187 11 21 6.2 100840 43
2010-11-17 14:51 51°18.414 2°52.143 11.1 23 6.1 100850 42
2010-11-17 14:52 51°18.206 2°52.098 14.3 26 6.1 100840 42
2010-11-17 14:53 51°17.998 2°52.082 12 18 6.1 100830 42
2010-11-17 14:54 51°17.788 2°52.076 10.9 23 6.1 100830 40
2010-11-17 14:55 51°17.579 2°52.072 12.2 25 6.1 100830 40
2010-11-17 14:56 51°17.374 2°52.115 13.9 22 6.1 100840 42
2010-11-17 14:57 51°17.181 2°52.22 12.7 319 6.1 100840 42
2010-11-17 14:58 51°16.995 2°52.347 13 315 6.1 100830 42
2010-11-17 14:59 51°16.814 2°52.486 12.2 319 6.1 100830 41
2010-11-17 15:00 51°16.631 2°52.624 12 316 6.1 100830 42
2010-11-17 15:01 51°16.45 2°52.769 11.2 317 6.1 100840 42
2010-11-17 15:02 51°16.274 2°52.922 6 315 6.1 100830 40
2010-11-17 15:03 51°16.101 2°53.083 11.8 317 6.1 100840 41
2010-11-17 15:04 51°15.936 2°53.258 11.6 322 6.1 100840 42
2010-11-17 15:05 51°15.775 2°53.441 13.1 317 6 100840 42
2010-11-17 15:06 51°15.621 2°53.636 11.3 321 6 100840 42
2010-11-17 15:07 51°15.493 2°53.87 11.3 325 6 100850 42
2010-11-17 15:08 51°15.355 2°54.089 11.8 321 6 100850 42
2010-11-17 15:09 51°15.184 2°54.259 5.7 319 6 100850 40
2010-11-17 15:10 51°15.014 2°54.434 5.1 317 6 100850 41
2010-11-17 15:11 51°14.849 2°54.621 4.5 320 6 100850 41
2010-11-17 15:12 51°14.686 2°54.812 9.6 321 6 100850 42
2010-11-17 15:13 51°14.524 2°55.002 7.1 319 6 100840 42
2010-11-17 15:14 51°14.36 2°55.18 5 319 5.9 100840 42
2010-11-17 15:15 51°14.215 2°55.328 7.4 319 5.9 100850 41
2010-11-17 15:16 51°14.099 2°55.433 6.8 317 5.8 100840 41
2010-11-17 15:17 51°14.003 2°55.502 5.4 26 5.8 100860 41
2010-11-17 15:18 51°13.907 2°55.563 4.8 323 5.8 100860 41
2010-11-17 15:19 51°13.813 2°55.643 5.1 322 5.8 100860 42
2010-11-17 15:21 51°13.743 2°55.739 6.1 317 5.8 100870 43
2010-11-17 15:21 51°13.695 2°55.835 6 324 5.7 100860 40
2010-11-17 15:22 51°13.666 2°55.926 4.1 327 5.7 100860 40
2010-11-17 15:23 51°13.662 2°55.961 2.5 317 5.7 100870 43
2010-11-17 15:24 51°13.661 2°55.96 0.4 316 5.7 100870 41
2010-11-17 15:25 51°13.662 2°55.96 -999 319 5.7 100860 41